Time;durP1;ratioP1;P1;durP2;ratioP2;P2;SDS_P1;SDS_P2;PMS_P1;PMS_P2;Temp;Humidity;BMP_temperature;BMP_pressure;BME280_temperature;BME280_humidity;BME280_pressure;Samples;Min_cycle;Max_cycle;Signal;HPM_P1;HPM_P2
2023/12/02 00:00:12;;;;;;;77.28;49.17;;;;;;;;;;5014773;28;20090;-75
2023/12/02 00:02:38;;;;;;;105.55;73.10;;;;;;;;;;4980337;28;20041;-75
2023/12/02 00:05:03;;;;;;;56.25;39.50;;;;;;;;;;5013994;28;20030;-74
2023/12/02 00:07:29;;;;;;;77.50;61.25;;;;;;;;;;5014058;28;20037;-74
2023/12/02 00:09:54;;;;;;;59.08;43.40;;;;;;;;;;5014342;28;20025;-74
2023/12/02 00:12:27;;;;;;;51.00;35.38;;;;;;;;;;5013984;28;20028;-75
2023/12/02 00:14:52;;;;;;;49.45;34.92;;;;;;;;;;4996297;28;20080;-74
2023/12/02 00:17:18;;;;;;;72.60;60.63;;;;;;;;;;4996319;28;20030;-74
2023/12/02 00:19:43;;;;;;;153.00;106.55;;;;;;;;;;5013880;28;20088;-73
2023/12/02 00:22:08;;;;;;;112.07;50.50;;;;;;;;;;5013569;28;20699;-72
2023/12/02 00:24:34;;;;;;;443.83;188.00;;;;;;;;;;5013961;28;20388;-72
2023/12/02 00:26:59;;;;;;;81.82;44.42;;;;;;;;;;5013837;28;20033;-73
2023/12/02 00:29:25;;;;;;;406.90;168.00;;;;;;;;;;5013851;28;20026;-73
2023/12/02 00:31:50;;;;;;;200.52;86.03;;;;;;;;;;5014015;28;20022;-72
2023/12/02 00:34:15;;;;;;;445.50;223.05;;;;;;;;;;5013747;28;20492;-72
2023/12/02 00:36:43;;;;;;;301.50;154.57;;;;;;;;;;5013656;28;20572;-72
2023/12/02 00:39:09;;;;;;;168.88;91.57;;;;;;;;;;5013711;28;20037;-72
2023/12/02 00:41:34;;;;;;;374.02;243.55;;;;;;;;;;5013694;28;20022;-72
2023/12/02 00:44:01;;;;;;;104.90;69.47;;;;;;;;;;4996391;28;20030;-72
2023/12/02 00:46:27;;;;;;;157.52;98.53;;;;;;;;;;5013696;28;20033;-72
2023/12/02 00:48:52;;;;;;;51.58;34.55;;;;;;;;;;4996050;28;20030;-72
2023/12/02 00:51:18;;;;;;;41.85;32.33;;;;;;;;;;5014006;28;20030;-72
2023/12/02 00:53:44;;;;;;;32.47;25.42;;;;;;;;;;5015196;28;20029;-72
2023/12/02 00:56:09;;;;;;;34.10;23.67;;;;;;;;;;5000035;28;20034;-73
2023/12/02 00:58:35;;;;;;;33.15;24.08;;;;;;;;;;5018023;28;20359;-73
2023/12/02 01:01:00;;;;;;;33.58;23.48;;;;;;;;;;5017455;28;20022;-72
2023/12/02 01:03:25;;;;;;;33.05;22.85;;;;;;;;;;5017401;28;20020;-72
2023/12/02 01:05:51;;;;;;;35.70;24.15;;;;;;;;;;5017338;28;20057;-72
2023/12/02 01:08:16;;;;;;;38.28;24.42;;;;;;;;;;5017546;28;20036;-72
2023/12/02 01:10:42;;;;;;;34.58;24.35;;;;;;;;;;5017284;28;20038;-72
2023/12/02 01:13:07;;;;;;;39.53;25.50;;;;;;;;;;5017579;28;20037;-73
2023/12/02 01:15:32;;;;;;;38.95;24.70;;;;;;;;;;5017158;28;20018;-73
2023/12/02 01:17:58;;;;;;;41.40;26.92;;;;;;;;;;5017301;28;20030;-72
2023/12/02 01:20:23;;;;;;;43.75;28.75;;;;;;;;;;5017563;28;20033;-75
2023/12/02 01:22:49;;;;;;;42.58;28.40;;;;;;;;;;5016965;28;20041;-75
2023/12/02 01:25:14;;;;;;;40.35;27.40;;;;;;;;;;4999274;28;20044;-75
2023/12/02 01:27:40;;;;;;;41.25;27.73;;;;;;;;;;5016999;28;20380;-74
2023/12/02 01:30:06;;;;;;;39.72;26.65;;;;;;;;;;5017116;28;20018;-74
2023/12/02 01:32:32;;;;;;;38.47;26.15;;;;;;;;;;5017082;28;20026;-74
2023/12/02 01:35:03;;;;;;;40.85;28.38;;;;;;;;;;5016680;28;20534;-74
2023/12/02 01:37:28;;;;;;;41.05;27.25;;;;;;;;;;5016848;28;20069;-73
2023/12/02 01:39:54;;;;;;;42.70;29.73;;;;;;;;;;5016635;28;20441;-74
2023/12/02 01:42:19;;;;;;;48.03;31.83;;;;;;;;;;4998996;28;20124;-73
2023/12/02 01:44:44;;;;;;;49.22;33.30;;;;;;;;;;5017021;28;20088;-73
2023/12/02 01:47:10;;;;;;;44.15;30.27;;;;;;;;;;5016527;28;20032;-73
2023/12/02 01:49:36;;;;;;;45.63;30.02;;;;;;;;;;5016528;28;20075;-74
2023/12/02 01:52:01;;;;;;;43.72;29.45;;;;;;;;;;4998877;28;20030;-74
2023/12/02 01:54:27;;;;;;;45.05;31.73;;;;;;;;;;4999097;28;20041;-74
2023/12/02 01:56:52;;;;;;;44.75;28.65;;;;;;;;;;4998838;28;20057;-75
2023/12/02 01:59:28;;;;;;;45.58;30.42;;;;;;;;;;5016309;28;20389;-76
2023/12/02 02:02:01;;;;;;;44.22;28.40;;;;;;;;;;5016276;28;20425;-76
2023/12/02 02:04:26;;;;;;;43.90;28.08;;;;;;;;;;5016382;28;20044;-73
2023/12/02 02:06:51;;;;;;;45.20;28.30;;;;;;;;;;4997990;28;20129;-73
2023/12/02 02:09:17;;;;;;;40.17;27.38;;;;;;;;;;4998708;28;20096;-73
2023/12/02 02:11:45;;;;;;;41.00;26.38;;;;;;;;;;5016732;28;20109;-76
2023/12/02 02:14:10;;;;;;;38.30;26.27;;;;;;;;;;5015997;28;20053;-75
2023/12/02 02:16:47;;;;;;;34.05;23.10;;;;;;;;;;5016021;28;20052;-75
2023/12/02 02:19:13;;;;;;;26.98;20.02;;;;;;;;;;4998501;28;20084;-76
2023/12/02 02:21:40;;;;;;;41.78;26.67;;;;;;;;;;5013816;28;20058;-76
2023/12/02 02:24:05;;;;;;;33.45;21.20;;;;;;;;;;4998620;28;20495;-76
2023/12/02 02:26:31;;;;;;;45.40;27.33;;;;;;;;;;5015801;28;20026;-75
2023/12/02 02:28:56;;;;;;;28.48;19.25;;;;;;;;;;5015700;28;20034;-76
2023/12/02 02:31:21;;;;;;;28.75;21.73;;;;;;;;;;5015838;28;20025;-75
2023/12/02 02:33:47;;;;;;;26.60;19.83;;;;;;;;;;5015691;28;20516;-74
2023/12/02 02:36:12;;;;;;;25.20;17.98;;;;;;;;;;5016176;28;20041;-74
2023/12/02 02:38:38;;;;;;;27.15;17.52;;;;;;;;;;5015912;28;20033;-74
2023/12/02 02:41:04;;;;;;;26.15;16.90;;;;;;;;;;5016069;28;20045;-74
2023/12/02 02:43:29;;;;;;;23.98;16.10;;;;;;;;;;5015466;28;20025;-74
2023/12/02 02:45:55;;;;;;;22.08;15.48;;;;;;;;;;5015801;28;20042;-74
2023/12/02 02:48:21;;;;;;;21.98;14.27;;;;;;;;;;4998208;28;20018;-75
2023/12/02 02:50:46;;;;;;;21.67;14.90;;;;;;;;;;5014462;28;20120;-75
2023/12/02 02:53:12;;;;;;;18.40;13.57;;;;;;;;;;5015903;28;20141;-75
2023/12/02 02:55:37;;;;;;;14.80;11.70;;;;;;;;;;5016117;28;20025;-75
2023/12/02 02:58:05;;;;;;;17.20;11.90;;;;;;;;;;4997870;28;20113;-75
2023/12/02 03:00:30;;;;;;;15.75;11.27;;;;;;;;;;5015485;28;20427;-75
2023/12/02 03:02:56;;;;;;;16.13;11.23;;;;;;;;;;5015124;28;20046;-75
2023/12/02 03:05:21;;;;;;;14.43;10.27;;;;;;;;;;5015310;28;20022;-73
2023/12/02 03:07:47;;;;;;;15.48;11.60;;;;;;;;;;5015092;28;20125;-76
2023/12/02 03:10:12;;;;;;;22.02;12.75;;;;;;;;;;4997340;28;20037;-76
2023/12/02 03:12:37;;;;;;;20.38;14.13;;;;;;;;;;5015152;28;20034;-75
2023/12/02 03:15:03;;;;;;;21.40;14.32;;;;;;;;;;5015431;28;20088;-75
2023/12/02 03:17:29;;;;;;;22.80;17.15;;;;;;;;;;5014230;28;20487;-74
2023/12/02 03:19:58;;;;;;;21.15;15.32;;;;;;;;;;5014581;28;20025;-74
2023/12/02 03:22:23;;;;;;;25.23;16.23;;;;;;;;;;4995505;28;20034;-75
2023/12/02 03:24:55;;;;;;;24.48;16.63;;;;;;;;;;4995054;28;20544;-74
2023/12/02 03:27:20;;;;;;;20.48;15.23;;;;;;;;;;4995281;28;20042;-75
2023/12/02 03:29:46;;;;;;;22.35;15.88;;;;;;;;;;4993893;28;20056;-73
2023/12/02 03:32:11;;;;;;;24.38;17.17;;;;;;;;;;4993952;28;20031;-73
2023/12/02 03:34:38;;;;;;;22.92;14.77;;;;;;;;;;4995248;28;20034;-74
2023/12/02 03:37:03;;;;;;;21.20;14.00;;;;;;;;;;4961381;28;20038;-74
2023/12/02 03:39:31;;;;;;;20.30;15.05;;;;;;;;;;4994860;28;20169;-75
2023/12/02 03:42:00;;;;;;;21.67;14.70;;;;;;;;;;5000693;23;20430;-73
2023/12/02 03:44:26;;;;;;;19.27;14.23;;;;;;;;;;4990503;28;20501;-73
2023/12/02 03:46:51;;;;;;;19.50;14.13;;;;;;;;;;4994721;28;20109;-73
2023/12/02 03:49:17;;;;;;;20.25;13.57;;;;;;;;;;4977297;28;20020;-71
2023/12/02 03:51:42;;;;;;;18.67;12.45;;;;;;;;;;4977517;28;20026;-72
2023/12/02 03:54:08;;;;;;;14.60;11.30;;;;;;;;;;4977683;28;20495;-72
2023/12/02 03:56:34;;;;;;;14.43;11.57;;;;;;;;;;4994584;28;20070;-72
2023/12/02 03:58:59;;;;;;;14.57;11.00;;;;;;;;;;4977110;28;20081;-72
2023/12/02 04:01:25;;;;;;;13.00;10.90;;;;;;;;;;4994466;28;20038;-71
2023/12/02 04:03:50;;;;;;;13.85;11.50;;;;;;;;;;4993183;28;20042;-71
2023/12/02 04:06:16;;;;;;;13.57;10.63;;;;;;;;;;4993374;28;20461;-71
2023/12/02 04:08:41;;;;;;;19.45;12.73;;;;;;;;;;4977365;28;20053;-71
2023/12/02 04:11:07;;;;;;;14.27;9.38;;;;;;;;;;4994423;28;20073;-71
2023/12/02 04:13:33;;;;;;;14.50;9.18;;;;;;;;;;4994344;28;20031;-71
2023/12/02 04:15:58;;;;;;;12.00;9.27;;;;;;;;;;4976978;28;20073;-70
2023/12/02 04:18:24;;;;;;;15.57;11.35;;;;;;;;;;4977078;28;20034;-71
2023/12/02 04:20:49;;;;;;;14.40;10.40;;;;;;;;;;4994555;28;20033;-71
2023/12/02 04:23:15;;;;;;;13.45;10.02;;;;;;;;;;4993010;28;20473;-73
2023/12/02 04:25:40;;;;;;;12.73;9.07;;;;;;;;;;4994185;28;20109;-72
2023/12/02 04:28:07;;;;;;;12.27;9.15;;;;;;;;;;4994108;28;20026;-72
2023/12/02 04:30:33;;;;;;;14.48;10.27;;;;;;;;;;4999559;28;20065;-72
2023/12/02 04:32:58;;;;;;;14.63;9.82;;;;;;;;;;4983538;28;20052;-72
2023/12/02 04:35:24;;;;;;;14.98;10.05;;;;;;;;;;4999400;28;20074;-73
2023/12/02 04:37:49;;;;;;;14.32;9.50;;;;;;;;;;5000966;28;20034;-72
2023/12/02 04:40:17;;;;;;;15.23;10.35;;;;;;;;;;5001173;28;20038;-72
2023/12/02 04:42:44;;;;;;;18.02;11.63;;;;;;;;;;5000586;28;20164;-72
2023/12/02 04:45:10;;;;;;;12.25;8.82;;;;;;;;;;4999330;28;20042;-72
2023/12/02 04:47:38;;;;;;;10.65;8.30;;;;;;;;;;4999420;28;20026;-73
2023/12/02 04:50:04;;;;;;;14.45;8.65;;;;;;;;;;4999560;28;20033;-72
2023/12/02 04:52:30;;;;;;;12.93;8.18;;;;;;;;;;4982773;28;20097;-71
2023/12/02 04:54:56;;;;;;;13.48;8.63;;;;;;;;;;5000676;28;20026;-71
2023/12/02 04:57:22;;;;;;;12.55;8.77;;;;;;;;;;5001017;28;20552;-72
2023/12/02 04:59:47;;;;;;;10.77;8.48;;;;;;;;;;5000684;28;20033;-72
2023/12/02 05:02:14;;;;;;;12.07;8.75;;;;;;;;;;5000306;28;20022;-73
2023/12/02 05:04:39;;;;;;;13.13;9.20;;;;;;;;;;4998418;28;20027;-76
2023/12/02 05:07:04;;;;;;;12.48;8.90;;;;;;;;;;5000473;28;20030;-76
2023/12/02 05:09:30;;;;;;;13.57;9.98;;;;;;;;;;5000779;28;20014;-77
2023/12/02 05:11:55;;;;;;;14.73;10.30;;;;;;;;;;4999143;28;20022;-73
2023/12/02 05:14:21;;;;;;;17.67;13.73;;;;;;;;;;4999446;28;20034;-74
2023/12/02 05:16:46;;;;;;;14.93;11.20;;;;;;;;;;5000353;28;20033;-73
2023/12/02 05:19:12;;;;;;;13.02;10.60;;;;;;;;;;5000898;28;20471;-73
2023/12/02 05:21:38;;;;;;;12.38;9.55;;;;;;;;;;5000721;28;20038;-73
2023/12/02 05:24:03;;;;;;;12.43;9.25;;;;;;;;;;5000244;28;20026;-73
2023/12/02 05:26:29;;;;;;;12.55;8.70;;;;;;;;;;5000963;28;20022;-73
2023/12/02 05:28:54;;;;;;;10.23;8.93;;;;;;;;;;4999708;28;20014;-71
2023/12/02 05:31:20;;;;;;;10.25;7.70;;;;;;;;;;5000332;28;20080;-71
2023/12/02 05:33:46;;;;;;;10.55;8.82;;;;;;;;;;4997577;28;20480;-70
2023/12/02 05:36:11;;;;;;;9.25;8.27;;;;;;;;;;4998920;28;20440;-72
2023/12/02 05:38:36;;;;;;;11.57;9.85;;;;;;;;;;4999485;28;20116;-72
2023/12/02 05:41:03;;;;;;;12.95;9.68;;;;;;;;;;4994475;28;20117;-72
2023/12/02 05:43:29;;;;;;;11.40;8.57;;;;;;;;;;4995780;28;20046;-71
2023/12/02 05:45:54;;;;;;;12.00;8.63;;;;;;;;;;4996349;28;20038;-70
2023/12/02 05:48:20;;;;;;;11.20;8.52;;;;;;;;;;4995615;28;20034;-70
2023/12/02 05:50:45;;;;;;;11.18;8.32;;;;;;;;;;4996460;28;20110;-73
2023/12/02 05:53:11;;;;;;;11.65;8.52;;;;;;;;;;4995196;28;20030;-72
2023/12/02 05:55:36;;;;;;;12.82;9.05;;;;;;;;;;4995400;28;20701;-72
2023/12/02 05:58:02;;;;;;;11.38;7.85;;;;;;;;;;4995095;28;20053;-74
2023/12/02 06:00:28;;;;;;;9.80;7.68;;;;;;;;;;4996590;28;20125;-75
2023/12/02 06:02:54;;;;;;;12.00;8.93;;;;;;;;;;4995244;28;20057;-72
2023/12/02 06:05:19;;;;;;;10.25;8.45;;;;;;;;;;4995750;28;20034;-76
2023/12/02 06:07:45;;;;;;;10.57;7.68;;;;;;;;;;4994121;28;20034;-76
2023/12/02 06:10:11;;;;;;;8.63;7.30;;;;;;;;;;4976174;28;20037;-72
2023/12/02 06:12:37;;;;;;;9.57;8.05;;;;;;;;;;4994374;28;20393;-74
2023/12/02 06:15:02;;;;;;;9.68;6.93;;;;;;;;;;4993546;28;20038;-69
2023/12/02 06:17:27;;;;;;;9.48;7.00;;;;;;;;;;4993979;28;20447;-74
2023/12/02 06:19:53;;;;;;;7.68;6.65;;;;;;;;;;4993611;28;20026;-69
2023/12/02 06:22:18;;;;;;;8.93;6.80;;;;;;;;;;4994988;28;20362;-74
2023/12/02 06:24:43;;;;;;;9.35;6.43;;;;;;;;;;4994859;28;20473;-75
2023/12/02 06:27:09;;;;;;;17.13;10.95;;;;;;;;;;4977892;28;20519;-69
2023/12/02 06:29:37;;;;;;;11.63;9.32;;;;;;;;;;4995702;28;20030;-69
2023/12/02 06:32:03;;;;;;;9.23;8.32;;;;;;;;;;4978086;28;20062;-69
2023/12/02 06:34:30;;;;;;;21.67;14.52;;;;;;;;;;4994417;28;20034;-69
2023/12/02 06:36:55;;;;;;;10.25;9.15;;;;;;;;;;4995579;28;20364;-69
2023/12/02 06:39:21;;;;;;;18.77;13.80;;;;;;;;;;4995514;28;20026;-74
2023/12/02 06:41:46;;;;;;;12.23;9.95;;;;;;;;;;4995904;28;20022;-74
2023/12/02 06:44:12;;;;;;;9.10;6.70;;;;;;;;;;4995106;28;20054;-71
2023/12/02 06:46:37;;;;;;;15.43;12.88;;;;;;;;;;4995148;28;20023;-72
2023/12/02 06:49:03;;;;;;;31.83;21.55;;;;;;;;;;4993498;28;20388;-71
2023/12/02 06:51:29;;;;;;;10.50;8.02;;;;;;;;;;4995173;28;20030;-70
2023/12/02 06:53:57;;;;;;;17.88;13.43;;;;;;;;;;4994239;28;20104;-70
2023/12/02 06:56:24;;;;;;;15.32;11.57;;;;;;;;;;4995693;28;20150;-67
2023/12/02 06:58:49;;;;;;;11.27;9.00;;;;;;;;;;4995414;28;20081;-67
2023/12/02 07:01:31;;;;;;;11.45;10.25;;;;;;;;;;4977927;28;20022;-68
2023/12/02 07:03:57;;;;;;;12.50;9.80;;;;;;;;;;4994833;28;20033;-67
2023/12/02 07:06:23;;;;;;;17.10;11.75;;;;;;;;;;4994583;28;20023;-67
2023/12/02 07:08:49;;;;;;;62.22;41.17;;;;;;;;;;4977747;28;20444;-67
2023/12/02 07:11:14;;;;;;;15.77;10.55;;;;;;;;;;4993952;28;20064;-68
2023/12/02 07:13:40;;;;;;;26.20;20.27;;;;;;;;;;4992871;28;20041;-67
2023/12/02 07:16:06;;;;;;;26.02;14.50;;;;;;;;;;4977274;28;20540;-67
2023/12/02 07:18:31;;;;;;;25.38;18.17;;;;;;;;;;4977322;28;20484;-67
2023/12/02 07:21:00;;;;;;;38.92;29.17;;;;;;;;;;4977106;28;20068;-68
2023/12/02 07:23:25;;;;;;;20.30;16.05;;;;;;;;;;4977073;28;20038;-67
2023/12/02 07:25:58;;;;;;;16.35;12.45;;;;;;;;;;4976740;28;20037;-67
2023/12/02 07:28:24;;;;;;;18.63;14.90;;;;;;;;;;4976372;28;20540;-67
2023/12/02 07:30:49;;;;;;;15.93;12.68;;;;;;;;;;4976481;28;20122;-67
2023/12/02 07:33:15;;;;;;;14.15;11.13;;;;;;;;;;4960907;28;20109;-68
2023/12/02 07:35:42;;;;;;;16.20;13.38;;;;;;;;;;4976877;28;20435;-67
2023/12/02 07:38:08;;;;;;;23.50;20.85;;;;;;;;;;4994160;28;20556;-67
2023/12/02 07:40:35;;;;;;;26.30;20.05;;;;;;;;;;4976620;28;20129;-67
2023/12/02 07:43:09;;;;;;;19.15;14.52;;;;;;;;;;4976710;28;20089;-68
2023/12/02 07:45:36;;;;;;;25.38;13.82;;;;;;;;;;4993781;28;20030;-67
2023/12/02 07:48:03;;;;;;;11.35;9.45;;;;;;;;;;4960941;28;20496;-69
2023/12/02 07:50:29;;;;;;;15.20;12.05;;;;;;;;;;4994168;28;20023;-72
2023/12/02 07:52:54;;;;;;;15.65;13.60;;;;;;;;;;4993751;28;20076;-70
2023/12/02 07:55:20;;;;;;;9.63;7.90;;;;;;;;;;4976878;28;20069;-70
2023/12/02 07:57:46;;;;;;;91.43;75.63;;;;;;;;;;4960786;28;20058;-69
2023/12/02 08:00:14;;;;;;;55.80;49.78;;;;;;;;;;4977490;28;20034;-68
2023/12/02 08:02:40;;;;;;;72.70;61.30;;;;;;;;;;4976440;28;20038;-69
2023/12/02 08:05:06;;;;;;;87.90;75.70;;;;;;;;;;4987974;28;20026;-69
2023/12/02 08:07:32;;;;;;;111.22;53.30;;;;;;;;;;4983788;28;20121;-73
2023/12/02 08:09:58;;;;;;;119.72;57.95;;;;;;;;;;4982247;28;20114;-69
2023/12/02 08:12:23;;;;;;;86.20;60.50;;;;;;;;;;4966793;28;20026;-73
2023/12/02 08:14:55;;;;;;;112.13;69.78;;;;;;;;;;4982781;28;20488;-74
2023/12/02 08:17:23;;;;;;;63.25;34.05;;;;;;;;;;4993775;28;20037;-73
2023/12/02 08:19:48;;;;;;;82.13;47.00;;;;;;;;;;4993727;28;20392;-73
2023/12/02 08:22:14;;;;;;;34.88;23.65;;;;;;;;;;4976347;28;20037;-73
2023/12/02 08:24:42;;;;;;;34.35;21.98;;;;;;;;;;4992845;28;20058;-73
2023/12/02 08:27:11;;;;;;;80.90;50.88;;;;;;;;;;4976720;28;20026;-67
2023/12/02 08:29:37;;;;;;;98.80;66.13;;;;;;;;;;4976118;28;20464;-67
2023/12/02 08:32:03;;;;;;;127.57;83.85;;;;;;;;;;4993606;28;20030;-67
2023/12/02 08:34:28;;;;;;;155.43;89.40;;;;;;;;;;4976362;28;20473;-67
2023/12/02 08:36:54;;;;;;;78.18;48.25;;;;;;;;;;4993883;28;20093;-73
2023/12/02 08:39:19;;;;;;;90.47;53.30;;;;;;;;;;4994136;28;20093;-73
2023/12/02 08:41:45;;;;;;;89.10;51.85;;;;;;;;;;4993871;28;20366;-73
2023/12/02 08:44:12;;;;;;;74.82;40.58;;;;;;;;;;4975704;28;20489;-73
2023/12/02 08:46:38;;;;;;;100.53;51.22;;;;;;;;;;4993089;28;20029;-73
2023/12/02 08:49:03;;;;;;;84.55;42.60;;;;;;;;;;4992860;28;20081;-73
2023/12/02 08:51:28;;;;;;;34.63;22.92;;;;;;;;;;4975393;28;20523;-74
2023/12/02 08:53:59;;;;;;;105.70;49.67;;;;;;;;;;4975665;28;20053;-73
2023/12/02 08:56:24;;;;;;;;;;;;;;;;;;4993288;28;20033;-73
2023/12/02 08:58:51;;;;;;;73.65;39.47;;;;;;;;;;4992872;28;19914;-72
2023/12/02 09:01:16;;;;;;;97.63;49.42;;;;;;;;;;4975461;28;20093;-72
2023/12/02 09:03:42;;;;;;;76.38;35.25;;;;;;;;;;4992612;28;20122;-72
2023/12/02 09:06:07;;;;;;;63.30;35.55;;;;;;;;;;4992868;28;20026;-72
2023/12/02 09:08:33;;;;;;;59.17;28.33;;;;;;;;;;4992887;28;20030;-72
2023/12/02 09:10:59;;;;;;;38.53;22.77;;;;;;;;;;4975370;28;20558;-72
2023/12/02 09:13:48;;;;;;;41.30;24.73;;;;;;;;;;4975610;28;20389;-72
2023/12/02 09:16:22;;;;;;;56.88;32.60;;;;;;;;;;4994874;28;20030;-72
2023/12/02 09:18:48;;;;;;;34.40;18.38;;;;;;;;;;4996617;28;20035;-72
2023/12/02 09:21:20;;;;;;;40.83;23.00;;;;;;;;;;4979475;28;20026;-72
2023/12/02 09:23:48;;;;;;;63.40;33.75;;;;;;;;;;4996677;28;20038;-72
2023/12/02 09:26:27;;;;;;;61.05;29.90;;;;;;;;;;4996221;28;20022;-72
2023/12/02 09:28:54;;;;;;;71.28;38.58;;;;;;;;;;4995624;28;20121;-71
2023/12/02 09:31:21;;;;;;;55.47;31.60;;;;;;;;;;4996494;28;20026;-71
2023/12/02 09:33:55;;;;;;;39.10;23.73;;;;;;;;;;4996605;28;20523;-72
2023/12/02 09:36:29;;;;;;;68.65;39.15;;;;;;;;;;4979732;28;20040;-71
2023/12/02 09:38:54;;;;;;;41.97;23.60;;;;;;;;;;4995895;28;20539;-71
2023/12/02 09:41:28;;;;;;;106.47;50.88;;;;;;;;;;4997078;28;20034;-73
2023/12/02 09:44:10;;;;;;;97.82;47.70;;;;;;;;;;4996918;28;20054;-72
2023/12/02 09:46:52;;;;;;;68.93;38.00;;;;;;;;;;4979732;28;20061;-71
2023/12/02 09:49:22;;;;;;;57.65;35.40;;;;;;;;;;4979659;28;20035;-71
2023/12/02 09:51:57;;;;;;;77.13;37.60;;;;;;;;;;4997016;28;20026;-70
2023/12/02 09:54:34;;;;;;;66.15;31.48;;;;;;;;;;4997381;28;20053;-70
2023/12/02 09:57:09;;;;;;;128.27;65.05;;;;;;;;;;4979660;28;20080;-70
2023/12/02 09:59:37;;;;;;;170.35;63.15;;;;;;;;;;4996798;28;20030;-70
2023/12/02 10:02:04;;;;;;;182.43;79.97;;;;;;;;;;4997204;28;20037;-65
2023/12/02 10:04:45;;;;;;;42.70;25.67;;;;;;;;;;4996845;28;20049;-70
2023/12/02 10:07:10;;;;;;;;;;;;;;;;;;4997009;28;20045;-70
2023/12/02 10:09:44;;;;;;;46.20;26.55;;;;;;;;;;4996609;28;19910;-70
2023/12/02 10:12:30;;;;;;;42.85;25.50;;;;;;;;;;4996511;28;20118;-70
2023/12/02 10:15:01;;;;;;;39.35;27.05;;;;;;;;;;4996552;28;20038;-70
2023/12/02 10:17:28;;;;;;;28.88;19.00;;;;;;;;;;4996464;28;20038;-70
2023/12/02 10:20:00;;;;;;;192.25;100.80;;;;;;;;;;4996759;28;20464;-70
2023/12/02 10:22:28;;;;;;;88.88;53.17;;;;;;;;;;4996841;28;20532;-70
2023/12/02 10:25:03;;;;;;;99.03;58.15;;;;;;;;;;4996209;28;20076;-72
2023/12/02 10:27:29;;;;;;;76.68;43.60;;;;;;;;;;4961759;28;20034;-72
2023/12/02 10:30:15;;;;;;;41.35;22.25;;;;;;;;;;4978339;28;20034;-72
2023/12/02 10:32:47;;;;;;;125.25;67.40;;;;;;;;;;4996284;28;20026;-72
2023/12/02 10:35:21;;;;;;;35.13;23.55;;;;;;;;;;4978330;28;20042;-72
2023/12/02 10:37:52;;;;;;;60.28;37.58;;;;;;;;;;4995831;28;20473;-73
2023/12/02 10:40:19;;;;;;;50.08;29.13;;;;;;;;;;4978219;28;20030;-72
2023/12/02 10:42:48;;;;;;;61.60;35.20;;;;;;;;;;4995291;28;20050;-72
2023/12/02 10:45:15;;;;;;;72.00;45.05;;;;;;;;;;4978177;28;20038;-72
2023/12/02 10:47:41;;;;;;;52.50;32.13;;;;;;;;;;4995509;28;20500;-65
2023/12/02 10:50:14;;;;;;;71.00;38.20;;;;;;;;;;4995759;28;20037;-72
2023/12/02 10:52:41;;;;;;;52.67;28.88;;;;;;;;;;4995678;28;20026;-72
2023/12/02 10:55:07;;;;;;;66.43;36.35;;;;;;;;;;4984078;28;20026;-73
2023/12/02 10:57:33;;;;;;;76.30;41.03;;;;;;;;;;4983487;28;20027;-72
2023/12/02 11:00:11;;;;;;;80.57;41.35;;;;;;;;;;4982784;28;20465;-73
2023/12/02 11:02:42;;;;;;;84.50;46.92;;;;;;;;;;4987107;28;20030;-72
2023/12/02 11:05:14;;;;;;;47.67;27.23;;;;;;;;;;4991408;28;20038;-72
2023/12/02 11:07:44;;;;;;;48.25;27.02;;;;;;;;;;4976944;28;20058;-72
2023/12/02 11:10:13;;;;;;;56.33;27.50;;;;;;;;;;4994392;28;20545;-72
2023/12/02 11:12:46;;;;;;;37.53;23.33;;;;;;;;;;4994161;28;20377;-72
2023/12/02 11:15:12;;;;;;;91.32;51.65;;;;;;;;;;4994233;28;20425;-72
2023/12/02 11:17:38;;;;;;;54.60;31.98;;;;;;;;;;4994201;28;20030;-72
2023/12/02 11:20:37;;;;;;;60.28;32.78;;;;;;;;;;4994096;28;20030;-72
2023/12/02 11:23:21;;;;;;;40.60;26.48;;;;;;;;;;4960423;28;20105;-72
2023/12/02 11:25:59;;;;;;;86.43;59.70;;;;;;;;;;4976726;28;20030;-73
2023/12/02 11:28:46;;;;;;;48.42;33.28;;;;;;;;;;4994809;28;20476;-73
2023/12/02 11:31:31;;;;;;;83.25;52.83;;;;;;;;;;4995058;28;20045;-72
2023/12/02 11:34:05;;;;;;;45.22;29.13;;;;;;;;;;4977357;28;20434;-72
2023/12/02 11:36:45;;;;;;;33.75;22.05;;;;;;;;;;4994283;28;20126;-72
2023/12/02 11:39:40;;;;;;;58.20;40.03;;;;;;;;;;4976492;28;20461;-72
2023/12/02 11:42:11;;;;;;;34.28;22.50;;;;;;;;;;4948052;28;20041;-72
2023/12/02 11:44:57;;;;;;;27.10;19.10;;;;;;;;;;4976921;28;20034;-72
2023/12/02 11:47:39;;;;;;;34.08;25.77;;;;;;;;;;4992742;28;20053;-71
2023/12/02 11:50:05;;;;;;;68.43;60.60;;;;;;;;;;4994825;28;20034;-67
2023/12/02 11:52:36;;;;;;;32.38;20.30;;;;;;;;;;4977031;28;20030;-67
2023/12/02 11:55:15;;;;;;;42.42;25.92;;;;;;;;;;4994619;28;20042;-67
2023/12/02 11:57:50;;;;;;;27.33;19.85;;;;;;;;;;4994654;28;20046;-65
2023/12/02 12:00:18;;;;;;;30.63;21.00;;;;;;;;;;4994716;28;20528;-70
2023/12/02 12:02:53;;;;;;;26.90;20.40;;;;;;;;;;4994730;28;20114;-71
2023/12/02 12:05:21;;;;;;;33.58;20.45;;;;;;;;;;4994681;28;20468;-71
2023/12/02 12:08:06;;;;;;;31.08;20.55;;;;;;;;;;4994491;28;20101;-71
2023/12/02 12:10:36;;;;;;;42.90;30.98;;;;;;;;;;4977137;28;20109;-70
2023/12/02 12:13:02;;;;;;;38.25;24.48;;;;;;;;;;4993250;28;20062;-64
2023/12/02 12:15:28;;;;;;;42.25;28.27;;;;;;;;;;4994226;28;20062;-70
2023/12/02 12:17:53;;;;;;;60.38;31.10;;;;;;;;;;4976614;28;20448;-69
2023/12/02 12:20:22;;;;;;;79.38;49.35;;;;;;;;;;4994506;28;20472;-70
2023/12/02 12:22:48;;;;;;;61.17;40.50;;;;;;;;;;4992936;28;20065;-72
2023/12/02 12:25:14;;;;;;;40.80;24.42;;;;;;;;;;4993769;28;20085;-64
2023/12/02 12:27:40;;;;;;;81.57;58.35;;;;;;;;;;4976121;28;20064;-64
2023/12/02 12:30:05;;;;;;;33.75;24.83;;;;;;;;;;4960112;28;20118;-67
2023/12/02 12:32:31;;;;;;;34.83;25.77;;;;;;;;;;4993886;28;20061;-67
2023/12/02 12:34:56;;;;;;;27.88;18.02;;;;;;;;;;4975685;28;20512;-69
2023/12/02 12:37:22;;;;;;;36.55;23.17;;;;;;;;;;4993610;28;20053;-67
2023/12/02 12:39:48;;;;;;;34.17;25.67;;;;;;;;;;4959709;28;20039;-71
2023/12/02 12:42:16;;;;;;;38.72;25.55;;;;;;;;;;4974225;28;20366;-71
2023/12/02 12:44:44;;;;;;;37.55;27.45;;;;;;;;;;4973036;28;20106;-71
2023/12/02 12:47:10;;;;;;;67.22;45.78;;;;;;;;;;4973854;28;20023;-71
2023/12/02 12:49:42;;;;;;;67.72;41.45;;;;;;;;;;4956947;28;20125;-71
2023/12/02 12:52:13;;;;;;;62.70;31.45;;;;;;;;;;4976159;28;20147;-71
2023/12/02 12:54:53;;;;;;;82.20;35.83;;;;;;;;;;4975342;28;20473;-70
2023/12/02 12:57:35;;;;;;;111.30;70.75;;;;;;;;;;4958666;28;20057;-70
2023/12/02 13:00:03;;;;;;;75.18;45.20;;;;;;;;;;4976101;28;20373;-70
2023/12/02 13:02:41;;;;;;;42.22;27.48;;;;;;;;;;4975267;28;20470;-70
2023/12/02 13:05:09;;;;;;;43.22;25.75;;;;;;;;;;4975172;28;20035;-69
2023/12/02 13:07:37;;;;;;;52.78;26.52;;;;;;;;;;4975407;28;20045;-70
2023/12/02 13:10:05;;;;;;;71.70;37.25;;;;;;;;;;4957945;28;20023;-70
2023/12/02 13:12:33;;;;;;;47.97;29.55;;;;;;;;;;4974390;28;20049;-70
2023/12/02 13:15:02;;;;;;;48.20;30.50;;;;;;;;;;4977196;28;20035;-70
2023/12/02 13:17:28;;;;;;;46.53;27.75;;;;;;;;;;4977186;28;20478;-71
2023/12/02 13:19:55;;;;;;;61.13;31.05;;;;;;;;;;4976906;28;20030;-70
2023/12/02 13:22:23;;;;;;;49.47;29.92;;;;;;;;;;4976790;28;20493;-70
2023/12/02 13:25:07;;;;;;;79.07;43.53;;;;;;;;;;4976581;28;20027;-70
2023/12/02 13:27:37;;;;;;;68.22;33.90;;;;;;;;;;4976875;28;20433;-70
2023/12/02 13:30:04;;;;;;;38.75;22.20;;;;;;;;;;4959361;28;20114;-70
2023/12/02 13:32:33;;;;;;;35.85;22.20;;;;;;;;;;4959382;28;20022;-72
2023/12/02 13:35:04;;;;;;;50.30;27.98;;;;;;;;;;4976593;28;20070;-70
2023/12/02 13:37:29;;;;;;;;;;;;;;;;;;4959958;28;20082;-70
2023/12/02 13:39:55;;;;;;;76.97;55.90;;;;;;;;;;4976520;28;19913;-70
2023/12/02 13:42:26;;;;;;;81.82;42.10;;;;;;;;;;4976114;28;20027;-69
2023/12/02 13:44:55;;;;;;;36.65;24.13;;;;;;;;;;4976232;28;20089;-70
2023/12/02 13:47:23;;;;;;;40.80;23.95;;;;;;;;;;4976453;28;20464;-70
2023/12/02 13:49:56;;;;;;;58.50;31.17;;;;;;;;;;4975969;28;20078;-70
2023/12/02 13:52:40;;;;;;;37.30;24.15;;;;;;;;;;4976271;28;20304;-70
2023/12/02 13:55:11;;;;;;;38.42;24.63;;;;;;;;;;4974645;28;20446;-70
2023/12/02 13:57:51;;;;;;;57.13;32.65;;;;;;;;;;4975318;28;20030;-70
2023/12/02 14:00:21;;;;;;;46.95;29.52;;;;;;;;;;4975894;28;20095;-70
2023/12/02 14:03:05;;;;;;;39.80;24.95;;;;;;;;;;4975422;28;20038;-70
2023/12/02 14:05:31;;;;;;;71.00;38.75;;;;;;;;;;4975920;28;20037;-70
2023/12/02 14:07:59;;;;;;;59.85;34.30;;;;;;;;;;4976105;28;20022;-70
2023/12/02 14:10:24;;;;;;;60.15;37.30;;;;;;;;;;4976022;28;20126;-70
2023/12/02 14:13:05;;;;;;;41.33;25.85;;;;;;;;;;4975863;28;20114;-70
2023/12/02 14:15:36;;;;;;;37.08;24.67;;;;;;;;;;4975953;28;20089;-70
2023/12/02 14:18:20;;;;;;;51.50;25.20;;;;;;;;;;4974669;28;20147;-69
2023/12/02 14:20:52;;;;;;;96.30;47.33;;;;;;;;;;4974497;28;20039;-68
2023/12/02 14:23:36;;;;;;;81.10;39.40;;;;;;;;;;4975739;28;20114;-68